Time;durP1;ratioP1;P1;durP2;ratioP2;P2;SDS_P1;SDS_P2;PMS_P1;PMS_P2;Temp;Humidity;BMP_temperature;BMP_pressure;BME280_temperature;BME280_humidity;BME280_pressure;Samples;Min_cycle;Max_cycle;Signal;HPM_P1;HPM_P2
2022/01/26 00:00:43;;;;;;;69.35;33.03;;;;;;;;;;4994748;28;94383;-68
2022/01/26 00:06:02;;;;;;;57.60;29.55;;;;;;;;;;4999735;28;94580;-68
2022/01/26 00:08:28;;;;;;;66.28;31.80;;;;;;;;;;4990154;28;96277;-68
2022/01/26 00:10:55;;;;;;;61.47;31.67;;;;;;;;;;4997767;28;92988;-68
2022/01/26 00:13:21;;;;;;;67.43;32.75;;;;;;;;;;4994393;28;94152;-68
2022/01/26 00:15:47;;;;;;;61.63;31.80;;;;;;;;;;4993926;28;94590;-68
2022/01/26 00:18:15;;;;;;;59.38;30.50;;;;;;;;;;4991132;28;92444;-68
2022/01/26 00:20:51;;;;;;;57.85;30.00;;;;;;;;;;4998345;28;93225;-68
2022/01/26 00:25:59;;;;;;;58.90;30.10;;;;;;;;;;4996307;28;93208;-68
2022/01/26 00:28:35;;;;;;;66.50;31.17;;;;;;;;;;4991743;28;94925;-68
2022/01/26 00:39:31;;;;;;;56.85;24.73;;;;;;;;;;4979050;28;93046;-68
2022/01/26 00:41:59;;;;;;;51.78;29.30;;;;;;;;;;4991589;28;94406;-68
2022/01/26 00:44:33;;;;;;;55.63;31.33;;;;;;;;;;4990019;28;94564;-68
2022/01/26 00:47:00;;;;;;;59.90;30.85;;;;;;;;;;4997123;28;93081;-68
2022/01/26 00:49:27;;;;;;;49.63;28.20;;;;;;;;;;4991127;28;92512;-68
2022/01/26 00:51:54;;;;;;;58.33;30.15;;;;;;;;;;4996655;28;92895;-68
2022/01/26 00:54:20;;;;;;;56.13;30.42;;;;;;;;;;4992156;28;93275;-68
2022/01/26 00:56:47;;;;;;;55.22;29.70;;;;;;;;;;4995658;28;93743;-68
2022/01/26 00:59:13;;;;;;;55.28;29.27;;;;;;;;;;4989648;28;94840;-68
2022/01/26 01:01:40;;;;;;;54.38;29.20;;;;;;;;;;4988211;28;95939;-69
2022/01/26 01:04:07;;;;;;;55.85;30.15;;;;;;;;;;4984334;28;93839;-68
2022/01/26 01:06:44;;;;;;;56.75;28.67;;;;;;;;;;4993279;28;92666;-68
2022/01/26 01:09:11;;;;;;;53.42;25.73;;;;;;;;;;4993799;28;94688;-68
2022/01/26 01:11:37;;;;;;;51.92;26.85;;;;;;;;;;4993341;28;92905;-68
2022/01/26 01:14:04;;;;;;;47.22;25.88;;;;;;;;;;4990863;28;93138;-69
2022/01/26 01:16:30;;;;;;;53.33;27.33;;;;;;;;;;4991227;28;93325;-69
2022/01/26 01:19:26;;;;;;;51.92;27.92;;;;;;;;;;4989123;28;93422;-69
2022/01/26 01:27:27;;;;;;;52.50;26.33;;;;;;;;;;4988282;28;92511;-69
2022/01/26 01:30:10;;;;;;;51.47;24.58;;;;;;;;;;4989083;28;94262;-69
2022/01/26 01:32:50;;;;;;;46.13;25.85;;;;;;;;;;4992600;28;94692;-69
2022/01/26 01:35:17;;;;;;;44.88;24.02;;;;;;;;;;4990168;28;93745;-69
2022/01/26 01:37:43;;;;;;;46.03;24.33;;;;;;;;;;4994547;28;94090;-68
2022/01/26 01:40:10;;;;;;;46.03;25.90;;;;;;;;;;4990735;28;93922;-69
2022/01/26 01:42:37;;;;;;;50.63;25.05;;;;;;;;;;4993910;28;94219;-69
2022/01/26 01:45:03;;;;;;;52.40;25.85;;;;;;;;;;4992824;28;94410;-68
2022/01/26 01:47:30;;;;;;;48.00;25.90;;;;;;;;;;4993362;28;94178;-69
2022/01/26 01:49:56;;;;;;;48.95;25.63;;;;;;;;;;4988728;28;94879;-68
2022/01/26 01:52:23;;;;;;;50.75;27.33;;;;;;;;;;4995255;28;94443;-69
2022/01/26 01:54:53;;;;;;;49.13;27.90;;;;;;;;;;4990879;28;93303;-69
2022/01/26 01:57:24;;;;;;;61.78;27.17;;;;;;;;;;4993175;28;93258;-69
2022/01/26 01:59:50;;;;;;;53.88;27.35;;;;;;;;;;4993309;28;92514;-68
2022/01/26 02:02:17;;;;;;;55.47;26.70;;;;;;;;;;4994495;28;94038;-69
2022/01/26 02:04:43;;;;;;;53.20;28.17;;;;;;;;;;4987015;28;94920;-68
2022/01/26 02:07:11;;;;;;;53.50;26.73;;;;;;;;;;4992908;28;92696;-69
2022/01/26 02:09:37;;;;;;;49.60;28.30;;;;;;;;;;4993561;28;93584;-68
2022/01/26 02:12:15;;;;;;;58.30;28.58;;;;;;;;;;5000694;28;94531;-68
2022/01/26 02:14:47;;;;;;;54.13;27.85;;;;;;;;;;4994940;28;95767;-68
2022/01/26 02:17:35;;;;;;;54.30;28.45;;;;;;;;;;4999931;28;93507;-68
2022/01/26 02:20:33;;;;;;;54.30;28.27;;;;;;;;;;4994273;28;92708;-69
2022/01/26 02:50:56;;;;;;;71.53;36.05;;;;;;;;;;4988114;28;92461;-69
2022/01/26 02:56:06;;;;;;;73.22;36.72;;;;;;;;;;4996810;28;93462;-69
2022/01/26 03:01:38;;;;;;;76.38;37.85;;;;;;;;;;5000032;28;93698;-69
2022/01/26 03:04:14;;;;;;;76.70;38.17;;;;;;;;;;4994669;28;93338;-69
2022/01/26 03:09:17;;;;;;;78.73;40.50;;;;;;;;;;4991329;28;96990;-69
2022/01/26 03:11:46;;;;;;;77.32;39.90;;;;;;;;;;4994264;28;92600;-69
2022/01/26 03:14:25;;;;;;;67.57;36.30;;;;;;;;;;4992309;28;93083;-69
2022/01/26 03:16:58;;;;;;;79.05;41.17;;;;;;;;;;4997213;28;94367;-69
2022/01/26 03:19:38;;;;;;;91.10;43.75;;;;;;;;;;4987423;28;92569;-69
2022/01/26 03:35:40;;;;;;;84.43;43.63;;;;;;;;;;4987480;28;95036;-68
2022/01/26 03:38:07;;;;;;;86.68;45.40;;;;;;;;;;4997823;28;94282;-69
2022/01/26 03:40:37;;;;;;;92.65;47.42;;;;;;;;;;4992622;28;92564;-69
2022/01/26 03:43:05;;;;;;;89.22;48.08;;;;;;;;;;4987523;28;94114;-69
2022/01/26 03:45:31;;;;;;;91.05;47.25;;;;;;;;;;4996535;28;93653;-69
2022/01/26 03:47:58;;;;;;;94.65;47.90;;;;;;;;;;4992383;28;92873;-68
2022/01/26 03:50:25;;;;;;;91.47;46.65;;;;;;;;;;4996794;28;94043;-68
2022/01/26 03:52:51;;;;;;;89.95;47.60;;;;;;;;;;4993443;28;92248;-68
2022/01/26 03:55:18;;;;;;;99.65;48.38;;;;;;;;;;4990556;28;93249;-69
2022/01/26 03:57:44;;;;;;;99.72;52.20;;;;;;;;;;4991525;28;93637;-68
2022/01/26 04:00:11;;;;;;;102.28;49.88;;;;;;;;;;4987226;28;94972;-68
2022/01/26 04:02:40;;;;;;;95.45;50.03;;;;;;;;;;4992525;28;95076;-68
2022/01/26 04:05:10;;;;;;;105.00;52.53;;;;;;;;;;4991052;28;94436;-69
2022/01/26 04:07:37;;;;;;;97.05;51.25;;;;;;;;;;4991762;28;92898;-68
2022/01/26 04:10:16;;;;;;;107.15;55.47;;;;;;;;;;4998331;28;93542;-68
2022/01/26 04:12:43;;;;;;;102.80;51.42;;;;;;;;;;4996751;28;93029;-69
2022/01/26 04:15:20;;;;;;;99.55;52.92;;;;;;;;;;4984012;28;93587;-69
2022/01/26 04:17:47;;;;;;;105.60;52.92;;;;;;;;;;4993106;28;93709;-69
2022/01/26 04:20:13;;;;;;;107.93;53.60;;;;;;;;;;4990585;28;92555;-69
2022/01/26 04:22:50;;;;;;;99.57;54.20;;;;;;;;;;4991271;28;94163;-69
2022/01/26 04:25:21;;;;;;;103.68;50.60;;;;;;;;;;4993142;28;96865;-68
2022/01/26 04:27:51;;;;;;;99.90;52.95;;;;;;;;;;4991406;28;92456;-69
2022/01/26 04:30:17;;;;;;;108.85;53.53;;;;;;;;;;4994766;28;93702;-69
2022/01/26 04:32:43;;;;;;;99.22;53.17;;;;;;;;;;5001339;28;93524;-69
2022/01/26 04:35:11;;;;;;;96.43;53.50;;;;;;;;;;4992428;28;93896;-69
2022/01/26 04:38:06;;;;;;;97.07;52.47;;;;;;;;;;4996004;28;94581;-68
2022/01/26 04:40:34;;;;;;;99.78;53.05;;;;;;;;;;4991058;28;93176;-69
2022/01/26 04:43:05;;;;;;;104.10;55.03;;;;;;;;;;4991749;28;94046;-68
2022/01/26 04:45:31;;;;;;;104.30;55.60;;;;;;;;;;4992106;28;95013;-69
2022/01/26 04:47:58;;;;;;;95.05;53.28;;;;;;;;;;4990309;28;93599;-68
2022/01/26 04:50:24;;;;;;;102.03;54.13;;;;;;;;;;4990271;28;94931;-68
2022/01/26 04:52:50;;;;;;;99.18;52.95;;;;;;;;;;4991746;28;94060;-68
2022/01/26 04:55:17;;;;;;;100.57;52.33;;;;;;;;;;4993580;28;92528;-69
2022/01/26 04:57:43;;;;;;;99.15;54.63;;;;;;;;;;4997560;28;94462;-68
2022/01/26 05:00:14;;;;;;;108.05;58.13;;;;;;;;;;4991973;28;93476;-68
2022/01/26 05:02:41;;;;;;;92.05;47.65;;;;;;;;;;4989609;28;94040;-68
2022/01/26 05:05:07;;;;;;;102.30;57.53;;;;;;;;;;4987915;28;94814;-68
2022/01/26 05:07:34;;;;;;;103.35;53.72;;;;;;;;;;4994594;28;92298;-68
2022/01/26 05:10:02;;;;;;;105.72;56.92;;;;;;;;;;4991622;28;93408;-69
2022/01/26 05:12:29;;;;;;;105.97;57.20;;;;;;;;;;4993252;28;94220;-68
2022/01/26 05:14:55;;;;;;;105.13;57.70;;;;;;;;;;4989329;28;95229;-68
2022/01/26 05:17:23;;;;;;;112.47;56.83;;;;;;;;;;4994279;28;96809;-69
2022/01/26 05:19:54;;;;;;;108.22;57.22;;;;;;;;;;4993383;28;92601;-69
2022/01/26 05:22:21;;;;;;;109.40;57.78;;;;;;;;;;4994653;28;95260;-68
2022/01/26 05:24:47;;;;;;;109.70;57.08;;;;;;;;;;4990079;28;93352;-69
2022/01/26 05:27:14;;;;;;;122.63;59.60;;;;;;;;;;4993619;28;92515;-68
2022/01/26 05:29:40;;;;;;;114.22;57.47;;;;;;;;;;4990724;28;94081;-69
2022/01/26 05:32:07;;;;;;;103.40;53.58;;;;;;;;;;4989875;28;92703;-68
2022/01/26 05:34:33;;;;;;;100.57;53.85;;;;;;;;;;4996186;28;92499;-68
2022/01/26 05:36:59;;;;;;;102.00;53.67;;;;;;;;;;4991228;28;94516;-69
2022/01/26 05:39:26;;;;;;;113.82;57.42;;;;;;;;;;4990299;28;96853;-68
2022/01/26 05:41:52;;;;;;;111.53;55.85;;;;;;;;;;4989674;28;96484;-68
2022/01/26 05:44:19;;;;;;;114.10;58.42;;;;;;;;;;4990490;28;94627;-68
2022/01/26 05:46:48;;;;;;;109.20;59.38;;;;;;;;;;4989933;28;92909;-69
2022/01/26 05:49:17;;;;;;;109.18;55.88;;;;;;;;;;4992371;28;94472;-68
2022/01/26 05:51:46;;;;;;;107.88;55.72;;;;;;;;;;4990573;28;94566;-68
2022/01/26 05:54:13;;;;;;;109.40;58.13;;;;;;;;;;4989927;28;94282;-68
2022/01/26 05:56:42;;;;;;;112.03;57.20;;;;;;;;;;4994302;28;94024;-68
2022/01/26 05:59:09;;;;;;;108.38;55.78;;;;;;;;;;4991086;28;94974;-68
2022/01/26 06:01:35;;;;;;;115.93;57.45;;;;;;;;;;4993588;28;93242;-68
2022/01/26 06:04:02;;;;;;;115.35;55.40;;;;;;;;;;4993163;28;95887;-68
2022/01/26 06:06:29;;;;;;;121.18;59.05;;;;;;;;;;4988960;28;93046;-68
2022/01/26 06:08:55;;;;;;;123.53;59.97;;;;;;;;;;4996138;28;95175;-68
2022/01/26 06:11:21;;;;;;;117.65;57.75;;;;;;;;;;4992397;28;94477;-68
2022/01/26 06:13:48;;;;;;;130.27;60.65;;;;;;;;;;4994474;28;92447;-68
2022/01/26 06:16:16;;;;;;;120.40;57.65;;;;;;;;;;4990420;28;94308;-68
2022/01/26 06:18:45;;;;;;;120.78;60.03;;;;;;;;;;4992414;28;94008;-68
2022/01/26 06:21:11;;;;;;;122.20;61.30;;;;;;;;;;4993472;28;92185;-68
2022/01/26 06:23:38;;;;;;;117.57;60.58;;;;;;;;;;4992491;28;93502;-68
2022/01/26 06:26:04;;;;;;;129.32;59.92;;;;;;;;;;4990799;28;92394;-68
2022/01/26 06:28:30;;;;;;;123.28;59.75;;;;;;;;;;4993680;28;95326;-68
2022/01/26 06:31:03;;;;;;;131.80;61.80;;;;;;;;;;4989545;28;93509;-68
2022/01/26 06:33:32;;;;;;;124.13;62.25;;;;;;;;;;4995688;28;93322;-68
2022/01/26 06:36:00;;;;;;;135.32;62.65;;;;;;;;;;4989505;28;93381;-68
2022/01/26 06:38:28;;;;;;;127.65;58.33;;;;;;;;;;4992685;28;94185;-68
2022/01/26 06:40:54;;;;;;;121.38;59.50;;;;;;;;;;4994283;28;92570;-69
2022/01/26 06:43:23;;;;;;;123.43;60.22;;;;;;;;;;4995899;28;92467;-68
2022/01/26 06:45:55;;;;;;;136.55;60.58;;;;;;;;;;4997017;28;93478;-68
2022/01/26 06:51:00;;;;;;;131.90;59.30;;;;;;;;;;4996238;28;93790;-68
2022/01/26 06:53:27;;;;;;;133.00;57.90;;;;;;;;;;4991923;28;95460;-68
2022/01/26 06:55:53;;;;;;;133.02;64.18;;;;;;;;;;4993406;28;96579;-68
2022/01/26 06:58:19;;;;;;;134.20;62.45;;;;;;;;;;4992440;28;92454;-68
2022/01/26 07:00:46;;;;;;;132.98;60.97;;;;;;;;;;4993286;28;92462;-68
2022/01/26 07:03:12;;;;;;;139.98;62.72;;;;;;;;;;4992875;28;93926;-68
2022/01/26 07:05:39;;;;;;;140.00;63.60;;;;;;;;;;4998687;28;95767;-68
2022/01/26 07:08:05;;;;;;;145.10;65.38;;;;;;;;;;4993533;28;94236;-68
2022/01/26 07:10:36;;;;;;;138.07;61.67;;;;;;;;;;4984227;28;92705;-68
2022/01/26 07:13:02;;;;;;;142.43;61.88;;;;;;;;;;4994883;28;92482;-68
2022/01/26 07:23:29;;;;;;;134.70;61.22;;;;;;;;;;4992828;28;94730;-68
2022/01/26 07:25:55;;;;;;;141.68;61.53;;;;;;;;;;4991013;28;93910;-69
2022/01/26 07:28:22;;;;;;;144.15;61.67;;;;;;;;;;4999631;28;92577;-68
2022/01/26 07:30:50;;;;;;;131.98;60.80;;;;;;;;;;4995940;28;94830;-69
2022/01/26 07:33:16;;;;;;;144.18;62.22;;;;;;;;;;4990523;28;93136;-69
2022/01/26 07:35:43;;;;;;;145.23;62.00;;;;;;;;;;4991081;28;93471;-69
2022/01/26 07:38:09;;;;;;;129.48;59.35;;;;;;;;;;4990650;28;94218;-69
2022/01/26 07:40:36;;;;;;;137.32;60.33;;;;;;;;;;4992404;28;92953;-69
2022/01/26 07:43:02;;;;;;;140.82;61.63;;;;;;;;;;4991308;28;94895;-69
2022/01/26 07:45:28;;;;;;;136.48;59.35;;;;;;;;;;4992084;28;94057;-69
2022/01/26 07:47:56;;;;;;;134.88;62.22;;;;;;;;;;4992589;28;92454;-69
2022/01/26 07:50:22;;;;;;;141.95;64.15;;;;;;;;;;4995255;28;92951;-69
2022/01/26 07:52:49;;;;;;;130.10;61.38;;;;;;;;;;4991749;28;92509;-69
2022/01/26 07:55:18;;;;;;;139.23;61.72;;;;;;;;;;4992079;28;93763;-69
2022/01/26 07:57:45;;;;;;;139.40;62.35;;;;;;;;;;4992562;28;94285;-69
2022/01/26 08:00:12;;;;;;;134.68;61.28;;;;;;;;;;4991820;28;91943;-69
2022/01/26 08:02:42;;;;;;;132.57;61.08;;;;;;;;;;4992557;28;94088;-69
2022/01/26 08:05:09;;;;;;;102.18;50.30;;;;;;;;;;4992095;28;94207;-69
2022/01/26 08:07:36;;;;;;;126.85;56.60;;;;;;;;;;4990418;28;94964;-69
2022/01/26 08:10:04;;;;;;;114.55;53.85;;;;;;;;;;4988360;28;97346;-69
2022/01/26 08:12:31;;;;;;;95.88;47.67;;;;;;;;;;4991249;28;92541;-69
2022/01/26 08:15:18;;;;;;;100.13;46.42;;;;;;;;;;4990628;28;93656;-69
2022/01/26 08:17:44;;;;;;;96.53;44.95;;;;;;;;;;4991661;28;94749;-69
2022/01/26 08:20:11;;;;;;;89.60;45.90;;;;;;;;;;4991524;28;92567;-68
2022/01/26 08:22:38;;;;;;;79.80;41.45;;;;;;;;;;4990646;28;93399;-69
2022/01/26 08:25:05;;;;;;;75.18;38.65;;;;;;;;;;4992677;28;93335;-68
2022/01/26 08:27:39;;;;;;;76.25;39.55;;;;;;;;;;4988094;28;92701;-69
2022/01/26 08:30:10;;;;;;;76.57;40.53;;;;;;;;;;4991627;28;92988;-69
2022/01/26 08:32:36;;;;;;;67.93;37.58;;;;;;;;;;4993470;28;96992;-69
2022/01/26 08:35:03;;;;;;;71.38;36.63;;;;;;;;;;4990849;28;96553;-69
2022/01/26 08:37:29;;;;;;;76.07;40.97;;;;;;;;;;4991736;28;93436;-69
2022/01/26 08:39:56;;;;;;;71.47;38.60;;;;;;;;;;4990617;28;93758;-69
2022/01/26 08:42:22;;;;;;;68.38;39.15;;;;;;;;;;4995448;28;93098;-69
2022/01/26 08:44:48;;;;;;;69.50;39.28;;;;;;;;;;4991118;28;93768;-68
2022/01/26 08:47:15;;;;;;;71.93;39.70;;;;;;;;;;4993483;28;94397;-69
2022/01/26 08:49:41;;;;;;;73.95;39.40;;;;;;;;;;4989360;28;93124;-69
2022/01/26 08:52:08;;;;;;;74.75;38.60;;;;;;;;;;4991045;28;94598;-68
2022/01/26 08:54:34;;;;;;;71.20;37.67;;;;;;;;;;4994878;28;93953;-69
2022/01/26 08:57:00;;;;;;;71.50;40.33;;;;;;;;;;4990981;28;96953;-68
2022/01/26 08:59:27;;;;;;;74.07;39.50;;;;;;;;;;4992145;28;92467;-69
2022/01/26 09:01:53;;;;;;;67.20;39.08;;;;;;;;;;4991822;28;93952;-69
2022/01/26 09:04:20;;;;;;;76.47;41.60;;;;;;;;;;4989925;28;93559;-69
2022/01/26 09:06:55;;;;;;;66.72;33.42;;;;;;;;;;4991644;28;92631;-69
2022/01/26 09:09:23;;;;;;;73.10;38.58;;;;;;;;;;4990402;28;94442;-69
2022/01/26 09:11:50;;;;;;;72.57;39.53;;;;;;;;;;4989439;28;94316;-69
2022/01/26 09:14:19;;;;;;;68.75;38.15;;;;;;;;;;4990458;28;93107;-69
2022/01/26 09:16:46;;;;;;;66.43;36.75;;;;;;;;;;4992925;28;93835;-69
2022/01/26 09:19:26;;;;;;;64.25;36.25;;;;;;;;;;4989700;28;92814;-69
2022/01/26 09:21:54;;;;;;;65.07;36.90;;;;;;;;;;4979013;28;95638;-69
2022/01/26 09:24:20;;;;;;;65.72;36.45;;;;;;;;;;4989649;28;94194;-69
2022/01/26 09:26:47;;;;;;;65.28;36.60;;;;;;;;;;4987534;28;92552;-69
2022/01/26 09:29:13;;;;;;;63.50;32.90;;;;;;;;;;4986485;28;94007;-69
2022/01/26 09:31:40;;;;;;;66.38;35.75;;;;;;;;;;4989737;28;94657;-69
2022/01/26 09:34:06;;;;;;;61.65;34.65;;;;;;;;;;4989400;28;92649;-69
2022/01/26 09:36:32;;;;;;;61.38;34.40;;;;;;;;;;4990452;28;93972;-69
2022/01/26 09:38:59;;;;;;;67.32;34.38;;;;;;;;;;4993341;28;93463;-69
2022/01/26 09:41:26;;;;;;;69.25;34.40;;;;;;;;;;4990405;28;93029;-69
2022/01/26 09:43:52;;;;;;;59.47;34.92;;;;;;;;;;4989310;28;94955;-69
2022/01/26 09:46:19;;;;;;;60.80;32.10;;;;;;;;;;4986568;28;95035;-69
2022/01/26 09:48:45;;;;;;;62.22;32.75;;;;;;;;;;4989913;28;96522;-69
2022/01/26 09:51:12;;;;;;;58.42;30.38;;;;;;;;;;4990081;28;94925;-70
2022/01/26 09:53:39;;;;;;;54.95;27.95;;;;;;;;;;4990608;28;92759;-69
2022/01/26 09:56:05;;;;;;;61.30;32.80;;;;;;;;;;4988375;28;94512;-69
2022/01/26 09:58:32;;;;;;;66.38;32.50;;;;;;;;;;4990848;28;94349;-69
2022/01/26 10:01:00;;;;;;;59.90;31.83;;;;;;;;;;4993111;28;92458;-69
2022/01/26 10:03:31;;;;;;;66.47;31.75;;;;;;;;;;4984578;28;93301;-69
2022/01/26 10:05:58;;;;;;;57.30;29.67;;;;;;;;;;4991981;28;92574;-69
2022/01/26 10:19:41;;;;;;;56.90;31.48;;;;;;;;;;4986375;28;95484;-69
2022/01/26 10:22:08;;;;;;;66.57;31.40;;;;;;;;;;4989457;28;94730;-69
2022/01/26 10:24:34;;;;;;;65.28;29.15;;;;;;;;;;4993317;28;95165;-69
2022/01/26 10:27:01;;;;;;;50.92;29.90;;;;;;;;;;4992126;28;92646;-69
2022/01/26 10:29:33;;;;;;;57.42;30.67;;;;;;;;;;4994350;28;93604;-69
2022/01/26 10:32:00;;;;;;;;;;;;;;;;;;4988512;28;94050;-69
2022/01/26 10:34:26;;;;;;;50.47;24.40;;;;;;;;;;4994271;28;119078;-69
2022/01/26 10:36:58;;;;;;;50.50;29.50;;;;;;;;;;4991295;28;95012;-69
2022/01/26 10:39:34;;;;;;;47.70;28.08;;;;;;;;;;4985589;28;93529;-67
2022/01/26 10:42:05;;;;;;;53.10;29.73;;;;;;;;;;4990236;28;93595;-68
2022/01/26 10:44:36;;;;;;;64.18;30.55;;;;;;;;;;4992928;28;93891;-68
2022/01/26 10:47:05;;;;;;;58.67;28.98;;;;;;;;;;4990149;28;93708;-68
2022/01/26 10:49:54;;;;;;;52.90;27.58;;;;;;;;;;4982194;28;94416;-68
2022/01/26 10:52:29;;;;;;;55.40;29.42;;;;;;;;;;4987830;28;93608;-68
2022/01/26 10:54:55;;;;;;;52.17;29.73;;;;;;;;;;4993788;28;92358;-68
2022/01/26 10:57:23;;;;;;;60.63;30.88;;;;;;;;;;4993594;28;94854;-68
2022/01/26 10:59:50;;;;;;;64.80;29.10;;;;;;;;;;4992028;28;93261;-68
2022/01/26 11:02:30;;;;;;;64.38;29.55;;;;;;;;;;4989997;28;96498;-68
2022/01/26 11:04:57;;;;;;;57.20;30.13;;;;;;;;;;4990492;28;95524;-68
2022/01/26 11:07:31;;;;;;;59.22;29.80;;;;;;;;;;5005993;28;94109;-68
2022/01/26 11:10:00;;;;;;;51.25;27.38;;;;;;;;;;4995271;28;94897;-68
2022/01/26 11:12:28;;;;;;;59.13;28.60;;;;;;;;;;4992802;28;94067;-68
2022/01/26 11:15:02;;;;;;;55.38;29.23;;;;;;;;;;4992006;28;92467;-68
2022/01/26 11:17:33;;;;;;;55.88;30.58;;;;;;;;;;4992012;28;93147;-68
2022/01/26 11:19:59;;;;;;;57.13;29.70;;;;;;;;;;4990341;28;93344;-68
2022/01/26 11:22:29;;;;;;;57.17;29.13;;;;;;;;;;4992235;28;92544;-68
2022/01/26 11:25:06;;;;;;;60.95;29.95;;;;;;;;;;4988184;28;93191;-68
2022/01/26 11:27:36;;;;;;;50.88;27.75;;;;;;;;;;4986202;28;96969;-68
2022/01/26 11:30:15;;;;;;;53.65;29.02;;;;;;;;;;4994362;28;92523;-68
2022/01/26 11:32:51;;;;;;;55.25;27.92;;;;;;;;;;4987386;28;94336;-68
2022/01/26 11:35:20;;;;;;;60.13;29.10;;;;;;;;;;4986559;28;92496;-68
2022/01/26 11:38:02;;;;;;;53.00;28.35;;;;;;;;;;4988827;28;94059;-68
2022/01/26 11:46:10;;;;;;;51.72;29.00;;;;;;;;;;4984810;28;93730;-68
2022/01/26 11:48:37;;;;;;;52.35;27.08;;;;;;;;;;4993759;28;94583;-67
2022/01/26 11:51:04;;;;;;;57.33;27.48;;;;;;;;;;4994506;28;93667;-68
2022/01/26 11:53:31;;;;;;;54.67;30.55;;;;;;;;;;4987757;28;96564;-68
2022/01/26 11:56:07;;;;;;;49.75;21.98;;;;;;;;;;4983817;28;95825;-68
2022/01/26 11:58:37;;;;;;;53.30;28.75;;;;;;;;;;4988901;28;94025;-68
2022/01/26 12:03:57;;;;;;;54.33;29.58;;;;;;;;;;4992206;28;93500;-69
2022/01/26 12:06:27;;;;;;;53.28;28.55;;;;;;;;;;4992272;28;93247;-69
2022/01/26 12:08:58;;;;;;;48.78;28.48;;;;;;;;;;4988319;28;95142;-68
2022/01/26 12:11:25;;;;;;;52.33;26.42;;;;;;;;;;4992654;28;91853;-69
2022/01/26 12:14:01;;;;;;;56.33;28.30;;;;;;;;;;4986857;28;95164;-69
2022/01/26 12:16:41;;;;;;;51.03;29.08;;;;;;;;;;4991176;28;96522;-69
2022/01/26 12:33:52;;;;;;;42.58;26.40;;;;;;;;;;4988546;28;93816;-69
2022/01/26 12:36:26;;;;;;;51.28;28.20;;;;;;;;;;4991869;28;94025;-69
2022/01/26 12:38:57;;;;;;;44.15;28.30;;;;;;;;;;4991396;28;94385;-69
2022/01/26 12:41:35;;;;;;;54.60;29.65;;;;;;;;;;4991050;28;93506;-69
2022/01/26 12:44:08;;;;;;;54.63;30.42;;;;;;;;;;4997396;28;93963;-70
2022/01/26 12:46:36;;;;;;;44.40;28.73;;;;;;;;;;4990448;28;96311;-68
2022/01/26 12:49:16;;;;;;;53.75;28.58;;;;;;;;;;4998170;28;96961;-68
2022/01/26 12:51:47;;;;;;;51.03;29.05;;;;;;;;;;4992439;28;93427;-68
2022/01/26 12:54:14;;;;;;;50.17;29.15;;;;;;;;;;4991773;28;92628;-69
2022/01/26 12:56:40;;;;;;;50.25;29.52;;;;;;;;;;4992177;28;95167;-69
2022/01/26 12:59:12;;;;;;;46.40;29.38;;;;;;;;;;4992348;28;94369;-69
2022/01/26 13:01:39;;;;;;;53.83;26.65;;;;;;;;;;5001674;28;92453;-69
2022/01/26 13:04:07;;;;;;;45.80;28.40;;;;;;;;;;4987581;28;93212;-69
2022/01/26 13:06:41;;;;;;;51.38;28.88;;;;;;;;;;4993509;28;92650;-68
2022/01/26 13:09:15;;;;;;;55.47;29.02;;;;;;;;;;4988436;28;93313;-69
2022/01/26 13:11:43;;;;;;;56.85;28.48;;;;;;;;;;4991812;28;95925;-69
2022/01/26 13:14:21;;;;;;;41.63;27.33;;;;;;;;;;5001996;28;94041;-69
2022/01/26 13:16:57;;;;;;;42.97;26.45;;;;;;;;;;4991995;28;93437;-69
2022/01/26 13:22:24;;;;;;;40.60;26.00;;;;;;;;;;4984943;28;92628;-70
2022/01/26 13:25:13;;;;;;;38.42;25.88;;;;;;;;;;4988840;28;93196;-70
2022/01/26 13:33:59;;;;;;;42.08;26.75;;;;;;;;;;4986845;28;93173;-69
2022/01/26 13:36:30;;;;;;;54.67;27.23;;;;;;;;;;4995619;28;93564;-69
2022/01/26 13:39:17;;;;;;;47.42;27.35;;;;;;;;;;4988957;28;95328;-69
2022/01/26 13:42:11;;;;;;;47.42;27.23;;;;;;;;;;4993765;28;92573;-69
2022/01/26 13:47:58;;;;;;;39.25;27.20;;;;;;;;;;4991682;28;92880;-69
2022/01/26 13:53:02;;;;;;;40.75;26.85;;;;;;;;;;4989335;28;93301;-70
2022/01/26 13:58:27;;;;;;;45.45;27.38;;;;;;;;;;4988953;28;93548;-69
2022/01/26 14:01:04;;;;;;;47.13;26.92;;;;;;;;;;4989320;28;92515;-70
2022/01/26 14:03:33;;;;;;;49.85;26.77;;;;;;;;;;4992332;28;94470;-69
2022/01/26 14:06:00;;;;;;;43.30;26.55;;;;;;;;;;4994445;28;96313;-69
2022/01/26 14:08:26;;;;;;;44.47;27.25;;;;;;;;;;4991326;28;96039;-69
2022/01/26 14:10:53;;;;;;;41.00;25.20;;;;;;;;;;4990806;28;94199;-69
2022/01/26 14:13:22;;;;;;;39.33;25.55;;;;;;;;;;4995586;28;92950;-69
2022/01/26 14:15:51;;;;;;;42.35;25.33;;;;;;;;;;4994779;28;94620;-69
2022/01/26 14:21:21;;;;;;;46.38;27.30;;;;;;;;;;4988802;28;93877;-70
2022/01/26 14:26:13;;;;;;;41.60;26.83;;;;;;;;;;4984049;28;95338;-71
2022/01/26 14:28:39;;;;;;;51.72;28.55;;;;;;;;;;4987614;28;94084;-69
2022/01/26 14:36:41;;;;;;;46.17;26.85;;;;;;;;;;4986161;28;94579;-70
2022/01/26 14:53:47;;;;;;;46.47;26.63;;;;;;;;;;4990489;28;93452;-68
2022/01/26 14:55:57;;;;;;;46.08;24.85;;;;;;;;;;4989699;28;92558;-68
2022/01/26 15:08:42;;;;;;;41.85;25.48;;;;;;;;;;4989181;28;92611;-68
2022/01/26 15:29:58;;;;;;;45.58;24.80;;;;;;;;;;4995028;28;93452;-69
2022/01/26 15:34:19;;;;;;;39.58;22.17;;;;;;;;;;4991420;28;93067;-69
2022/01/26 15:43:23;;;;;;;37.22;22.02;;;;;;;;;;4986864;28;93320;-69
2022/01/26 15:52:06;;;;;;;39.22;23.33;;;;;;;;;;4992670;28;94670;-69
2022/01/26 16:08:10;;;;;;;47.30;28.73;;;;;;;;;;4992408;28;94903;-69
2022/01/26 16:26:58;;;;;;;54.17;33.08;;;;;;;;;;4987147;28;93206;-70
2022/01/26 16:37:49;;;;;;;49.65;33.40;;;;;;;;;;4991718;28;93591;-69
2022/01/26 16:52:24;;;;;;;53.40;33.72;;;;;;;;;;4983020;28;93609;-70
2022/01/26 18:15:55;;;;;;;58.65;36.55;;;;;;;;;;5006669;28;93980;-69
2022/01/26 18:26:36;;;;;;;64.78;39.95;;;;;;;;;;4990915;28;94242;-69
2022/01/26 18:31:57;;;;;;;58.00;37.10;;;;;;;;;;4997826;28;93166;-69
2022/01/26 18:51:34;;;;;;;62.67;37.83;;;;;;;;;;4996803;28;93401;-69
2022/01/26 18:54:01;;;;;;;64.25;36.50;;;;;;;;;;4998997;28;94356;-69
2022/01/26 18:56:28;;;;;;;65.70;39.83;;;;;;;;;;5004172;28;93216;-70
2022/01/26 18:58:54;;;;;;;61.60;37.63;;;;;;;;;;4994107;28;92510;-69
2022/01/26 19:01:21;;;;;;;59.67;34.53;;;;;;;;;;5010573;28;94622;-69
2022/01/26 19:03:48;;;;;;;61.10;37.50;;;;;;;;;;5001347;28;94876;-69
2022/01/26 19:06:14;;;;;;;58.38;36.80;;;;;;;;;;4994633;28;96748;-69
2022/01/26 19:08:41;;;;;;;68.05;37.25;;;;;;;;;;4995525;28;94052;-69
2022/01/26 19:11:10;;;;;;;60.03;37.30;;;;;;;;;;5000043;28;94024;-69
2022/01/26 19:13:37;;;;;;;64.32;37.50;;;;;;;;;;4997004;28;93192;-69
2022/01/26 19:16:12;;;;;;;60.70;36.17;;;;;;;;;;4995751;28;94287;-69
2022/01/26 19:18:52;;;;;;;63.20;37.75;;;;;;;;;;5001473;28;92464;-70
2022/01/26 19:21:43;;;;;;;56.20;34.10;;;;;;;;;;5003687;28;94172;-69
2022/01/26 19:26:42;;;;;;;54.08;35.78;;;;;;;;;;4998238;28;94623;-70
2022/01/26 19:51:01;;;;;;;54.47;32.97;;;;;;;;;;4989702;28;94380;-69
2022/01/26 19:53:27;;;;;;;69.80;38.88;;;;;;;;;;4993202;28;92520;-69
2022/01/26 19:55:53;;;;;;;63.08;33.85;;;;;;;;;;4988227;28;95164;-69
2022/01/26 19:58:20;;;;;;;62.65;35.92;;;;;;;;;;4992076;28;96105;-70
2022/01/26 20:00:47;;;;;;;61.50;36.20;;;;;;;;;;4992521;28;93010;-69
2022/01/26 20:03:14;;;;;;;61.90;36.10;;;;;;;;;;4986405;28;94022;-69
2022/01/26 20:05:45;;;;;;;60.83;33.77;;;;;;;;;;4991934;28;94028;-69
2022/01/26 20:11:01;;;;;;;56.45;33.10;;;;;;;;;;4991608;28;93911;-69
2022/01/26 20:13:31;;;;;;;62.25;38.47;;;;;;;;;;4992893;28;91829;-69
2022/01/26 20:16:00;;;;;;;58.38;36.42;;;;;;;;;;4992892;28;92723;-70
2022/01/26 20:18:32;;;;;;;54.65;33.30;;;;;;;;;;4991859;28;94833;-70
2022/01/26 20:21:01;;;;;;;57.10;35.22;;;;;;;;;;4990204;28;96655;-69
2022/01/26 20:23:34;;;;;;;62.92;32.97;;;;;;;;;;5008244;28;95770;-69
2022/01/26 20:26:05;;;;;;;59.55;34.47;;;;;;;;;;4979566;28;94705;-70
2022/01/26 20:28:34;;;;;;;68.60;34.33;;;;;;;;;;4990569;28;92539;-69
2022/01/26 20:31:02;;;;;;;60.95;35.00;;;;;;;;;;4994437;28;93414;-69
2022/01/26 20:33:29;;;;;;;57.97;34.15;;;;;;;;;;4990998;28;92873;-69
2022/01/26 20:35:56;;;;;;;56.60;34.25;;;;;;;;;;4992160;28;94384;-69
2022/01/26 20:38:22;;;;;;;58.25;34.42;;;;;;;;;;4991944;28;92608;-69
2022/01/26 20:40:49;;;;;;;56.88;35.17;;;;;;;;;;4992081;28;92549;-69
2022/01/26 20:43:15;;;;;;;53.60;33.95;;;;;;;;;;4992383;28;93497;-69
2022/01/26 20:45:44;;;;;;;54.13;33.10;;;;;;;;;;4998272;28;96771;-69
2022/01/26 20:48:10;;;;;;;53.45;34.13;;;;;;;;;;4993462;28;93075;-69
2022/01/26 20:50:37;;;;;;;56.03;32.88;;;;;;;;;;5009196;28;94253;-69
2022/01/26 20:53:03;;;;;;;58.03;35.25;;;;;;;;;;4999476;28;94224;-69